Time;durP1;ratioP1;P1;durP2;ratioP2;P2;SDS_P1;SDS_P2;PMS_P1;PMS_P2;Temp;Humidity;BMP_temperature;BMP_pressure;BME280_temperature;BME280_humidity;BME280_pressure;Samples;Min_cycle;Max_cycle;Signal;HPM_P1;HPM_P2
2021/11/29 00:00:54;;;;;;;;;;;22.80;45.90;;;;;;3142405;28;20282;-60
2021/11/29 00:02:26;;;;;;;;;;;22.70;46.00;;;;;;3142299;28;20296;-56
2021/11/29 00:03:58;;;;;;;;;;;22.70;46.00;;;;;;3140311;28;19928;-58
2021/11/29 00:05:29;;;;;;;;;;;22.70;46.10;;;;;;3140308;28;19978;-56
2021/11/29 00:07:01;;;;;;;;;;;22.70;46.10;;;;;;3143026;28;19966;-57
2021/11/29 00:08:32;;;;;;;;;;;22.70;46.20;;;;;;3143121;28;19925;-55
2021/11/29 00:10:06;;;;;;;;;;;22.60;46.30;;;;;;3140924;28;19943;-56
2021/11/29 00:11:37;;;;;;;;;;;22.60;46.20;;;;;;3140696;28;20373;-58
2021/11/29 00:13:08;;;;;;;;;;;22.60;46.30;;;;;;3135679;28;19950;-56
2021/11/29 00:14:40;;;;;;;;;;;22.60;46.40;;;;;;3145739;28;20737;-57
2021/11/29 00:16:11;;;;;;;;;;;22.50;46.30;;;;;;3142338;28;19924;-58
2021/11/29 00:17:42;;;;;;;;;;;22.60;46.30;;;;;;3138666;28;19978;-57
2021/11/29 00:19:13;;;;;;;;;;;22.50;46.30;;;;;;3142592;28;20038;-56
2021/11/29 00:20:45;;;;;;;;;;;22.60;46.30;;;;;;3143224;28;20343;-55
2021/11/29 00:22:17;;;;;;;;;;;22.60;46.20;;;;;;3139505;28;19932;-59
2021/11/29 00:23:48;;;;;;;;;;;22.60;46.30;;;;;;3140204;28;19928;-58
2021/11/29 00:25:21;;;;;;;;;;;22.60;46.30;;;;;;3138347;28;19929;-56
2021/11/29 00:26:53;;;;;;;;;;;22.60;46.30;;;;;;3145574;28;19924;-58
2021/11/29 00:28:24;;;;;;;;;;;22.60;46.20;;;;;;3145050;28;20281;-56
2021/11/29 00:29:56;;;;;;;;;;;22.60;46.20;;;;;;3142408;28;19931;-56
2021/11/29 00:31:28;;;;;;;;;;;22.60;46.20;;;;;;3141906;28;19931;-54
2021/11/29 00:32:59;;;;;;;;;;;22.60;46.30;;;;;;3140532;28;19937;-58
2021/11/29 00:34:31;;;;;;;;;;;22.60;46.30;;;;;;3137826;28;20305;-54
2021/11/29 00:36:02;;;;;;;;;;;22.70;46.20;;;;;;3145628;28;19924;-58
2021/11/29 00:37:34;;;;;;;;;;;22.70;46.20;;;;;;3141585;28;19967;-57
2021/11/29 00:39:05;;;;;;;;;;;22.70;46.10;;;;;;3135711;28;19978;-58
2021/11/29 00:40:38;;;;;;;;;;;22.70;46.10;;;;;;3140420;28;20298;-54
2021/11/29 00:42:10;;;;;;;;;;;22.70;46.10;;;;;;3136425;28;20381;-59
2021/11/29 00:43:42;;;;;;;;;;;22.70;46.10;;;;;;3144013;28;19925;-53
2021/11/29 00:45:13;;;;;;;;;;;22.70;46.10;;;;;;3134556;28;19931;-55
2021/11/29 00:46:44;;;;;;;;;;;22.70;46.00;;;;;;3135242;28;20385;-58
2021/11/29 00:48:15;;;;;;;;;;;22.70;46.00;;;;;;3141129;28;19921;-58
2021/11/29 00:49:47;;;;;;;;;;;22.70;46.00;;;;;;3140221;28;20403;-57
2021/11/29 00:51:18;;;;;;;;;;;22.70;46.00;;;;;;3133918;28;19925;-56
2021/11/29 00:52:50;;;;;;;;;;;22.70;46.00;;;;;;3142672;28;19924;-58
2021/11/29 00:54:21;;;;;;;;;;;22.70;46.00;;;;;;3145170;28;20403;-57
2021/11/29 00:55:53;;;;;;;;;;;22.80;46.00;;;;;;3145259;28;19920;-55
2021/11/29 00:57:25;;;;;;;;;;;22.80;46.00;;;;;;3143160;28;19925;-58
2021/11/29 00:58:57;;;;;;;;;;;22.70;46.00;;;;;;3144429;28;19924;-57
2021/11/29 01:00:28;;;;;;;;;;;22.80;46.00;;;;;;3138524;28;20296;-56
2021/11/29 01:02:00;;;;;;;;;;;22.80;46.00;;;;;;3133588;28;20384;-57
2021/11/29 01:03:31;;;;;;;;;;;22.70;46.00;;;;;;3131020;28;19925;-59
2021/11/29 01:05:03;;;;;;;;;;;22.80;46.00;;;;;;3137830;28;19932;-56
2021/11/29 01:06:35;;;;;;;;;;;22.70;46.00;;;;;;3140691;28;19928;-55
2021/11/29 01:08:06;;;;;;;;;;;22.70;46.10;;;;;;3140335;28;19972;-55
2021/11/29 01:09:38;;;;;;;;;;;22.70;46.10;;;;;;3145066;28;19954;-57
2021/11/29 01:11:11;;;;;;;;;;;22.70;46.00;;;;;;3144242;28;19924;-58
2021/11/29 01:12:43;;;;;;;;;;;22.70;45.90;;;;;;3144515;28;19947;-57
2021/11/29 01:14:15;;;;;;;;;;;22.80;46.10;;;;;;3144778;28;19925;-55
2021/11/29 01:15:46;;;;;;;;;;;22.70;46.00;;;;;;3143729;28;20290;-56
2021/11/29 01:17:18;;;;;;;;;;;22.70;46.00;;;;;;3142692;28;19932;-57
2021/11/29 01:18:50;;;;;;;;;;;22.80;46.00;;;;;;3142522;28;19998;-56
2021/11/29 01:20:20;;;;;;;;;;;22.80;46.10;;;;;;3142572;28;19929;-57
2021/11/29 01:21:52;;;;;;;;;;;22.80;46.00;;;;;;3142710;28;19932;-56
2021/11/29 01:23:23;;;;;;;;;;;22.80;46.00;;;;;;3144055;28;19929;-58
2021/11/29 01:24:55;;;;;;;;;;;22.80;46.00;;;;;;3140903;28;19925;-58
2021/11/29 01:26:28;;;;;;;;;;;22.80;45.90;;;;;;3143043;28;19928;-59
2021/11/29 01:28:00;;;;;;;;;;;22.80;45.90;;;;;;3140712;28;19925;-56
2021/11/29 01:29:31;;;;;;;;;;;22.80;45.90;;;;;;3145142;28;19925;-56
2021/11/29 01:31:03;;;;;;;;;;;22.80;45.90;;;;;;3132145;28;20305;-57
2021/11/29 01:32:34;;;;;;;;;;;22.80;45.90;;;;;;3140560;28;19936;-58
2021/11/29 01:34:06;;;;;;;;;;;22.80;46.00;;;;;;3137434;28;19929;-58
2021/11/29 01:35:37;;;;;;;;;;;22.80;46.00;;;;;;3144191;28;19924;-56
2021/11/29 01:37:09;;;;;;;;;;;22.80;46.00;;;;;;3141268;28;19932;-57
2021/11/29 01:38:41;;;;;;;;;;;22.80;46.00;;;;;;3143768;28;19928;-58
2021/11/29 01:40:12;;;;;;;;;;;22.80;46.00;;;;;;3139348;28;19925;-57
2021/11/29 01:41:45;;;;;;;;;;;22.80;46.00;;;;;;3142956;28;19925;-60
2021/11/29 01:43:18;;;;;;;;;;;22.80;46.00;;;;;;3137171;28;19983;-57
2021/11/29 01:44:50;;;;;;;;;;;22.80;46.00;;;;;;3140401;28;20343;-54
2021/11/29 01:46:21;;;;;;;;;;;22.80;45.90;;;;;;3136251;28;19986;-55
2021/11/29 01:47:53;;;;;;;;;;;22.80;46.00;;;;;;3144306;28;19924;-57
2021/11/29 01:49:25;;;;;;;;;;;22.80;46.00;;;;;;3141488;28;20337;-58
2021/11/29 01:50:57;;;;;;;;;;;22.70;46.10;;;;;;3143071;28;19925;-55
2021/11/29 01:52:28;;;;;;;;;;;22.70;46.10;;;;;;3142840;28;19928;-56
2021/11/29 01:54:00;;;;;;;;;;;22.70;46.10;;;;;;3143985;28;20288;-59
2021/11/29 01:55:31;;;;;;;;;;;22.70;46.00;;;;;;3143932;28;19993;-57
2021/11/29 01:57:04;;;;;;;;;;;22.70;46.10;;;;;;3135971;28;19924;-57
2021/11/29 01:58:37;;;;;;;;;;;22.70;46.20;;;;;;3137333;28;19940;-59
2021/11/29 02:00:08;;;;;;;;;;;22.70;46.10;;;;;;3138227;28;19924;-58
2021/11/29 02:01:40;;;;;;;;;;;22.70;46.20;;;;;;3144313;28;19924;-59
2021/11/29 02:03:12;;;;;;;;;;;22.70;46.30;;;;;;3143269;28;19931;-58
2021/11/29 02:04:42;;;;;;;;;;;22.70;46.30;;;;;;3145456;28;19931;-58
2021/11/29 02:06:14;;;;;;;;;;;22.60;46.30;;;;;;3140959;28;19925;-56
2021/11/29 02:07:45;;;;;;;;;;;22.60;46.30;;;;;;3132654;28;19924;-56
2021/11/29 02:09:17;;;;;;;;;;;22.60;46.30;;;;;;3136307;28;19924;-58
2021/11/29 02:10:48;;;;;;;;;;;22.70;46.30;;;;;;3134749;28;20286;-58
2021/11/29 02:12:21;;;;;;;;;;;22.60;46.20;;;;;;3144480;28;19934;-59
2021/11/29 02:13:54;;;;;;;;;;;22.60;46.30;;;;;;3142382;28;19932;-57
2021/11/29 02:15:26;;;;;;;;;;;22.60;46.30;;;;;;3143290;28;19925;-57
2021/11/29 02:16:57;;;;;;;;;;;22.70;46.20;;;;;;3143950;28;19947;-59
2021/11/29 02:18:29;;;;;;;;;;;22.70;46.20;;;;;;3140309;28;19924;-57
2021/11/29 02:20:01;;;;;;;;;;;22.70;46.20;;;;;;3144658;28;19932;-55
2021/11/29 02:21:34;;;;;;;;;;;22.70;46.30;;;;;;3137312;28;19987;-55
2021/11/29 02:23:06;;;;;;;;;;;22.70;46.20;;;;;;3141069;28;20305;-58
2021/11/29 02:24:37;;;;;;;;;;;22.70;46.20;;;;;;3134129;28;19975;-59
2021/11/29 02:26:09;;;;;;;;;;;22.70;46.10;;;;;;3136274;28;19924;-58
2021/11/29 02:27:41;;;;;;;;;;;22.70;46.20;;;;;;3139607;28;19998;-57
2021/11/29 02:29:13;;;;;;;;;;;22.70;46.20;;;;;;3135945;28;20296;-56
2021/11/29 02:30:44;;;;;;;;;;;22.70;46.10;;;;;;3140958;28;19931;-55
2021/11/29 02:32:16;;;;;;;;;;;22.80;46.20;;;;;;3144758;28;19929;-58
2021/11/29 02:33:48;;;;;;;;;;;22.80;46.20;;;;;;3143412;28;19998;-58
2021/11/29 02:35:20;;;;;;;;;;;22.80;46.20;;;;;;3145426;28;20395;-55
2021/11/29 02:36:54;;;;;;;;;;;22.80;46.10;;;;;;3145036;28;19936;-57
2021/11/29 02:38:25;;;;;;;;;;;22.80;46.10;;;;;;3146593;28;19924;-57
2021/11/29 02:39:57;;;;;;;;;;;22.80;46.00;;;;;;3145595;28;19924;-56
2021/11/29 02:41:29;;;;;;;;;;;22.80;46.10;;;;;;3136185;28;19959;-56
2021/11/29 02:43:00;;;;;;;;;;;22.80;46.00;;;;;;3145994;28;19924;-57
2021/11/29 02:44:32;;;;;;;;;;;22.80;46.00;;;;;;3147224;28;19932;-59
2021/11/29 02:46:03;;;;;;;;;;;22.80;46.00;;;;;;3145739;28;20300;-56
2021/11/29 02:47:34;;;;;;;;;;;22.80;46.00;;;;;;3146274;28;19969;-58
2021/11/29 02:49:06;;;;;;;;;;;22.80;46.00;;;;;;3138708;28;19925;-57
2021/11/29 02:50:38;;;;;;;;;;;22.80;46.10;;;;;;3137654;28;19925;-57
2021/11/29 02:52:11;;;;;;;;;;;22.80;46.00;;;;;;3140467;28;19932;-55
2021/11/29 02:53:43;;;;;;;;;;;22.80;46.00;;;;;;3136303;28;20583;-55
2021/11/29 02:55:15;;;;;;;;;;;22.80;46.00;;;;;;3147202;28;19978;-57
2021/11/29 02:56:47;;;;;;;;;;;22.80;46.00;;;;;;3144732;28;20369;-55
2021/11/29 02:58:18;;;;;;;;;;;22.80;46.00;;;;;;3142876;28;20266;-56
2021/11/29 02:59:50;;;;;;;;;;;22.80;46.00;;;;;;3145966;28;19932;-56
2021/11/29 03:01:22;;;;;;;;;;;22.80;46.00;;;;;;3138479;28;19928;-57
2021/11/29 03:03:01;;;;;;;;;;;22.80;46.00;;;;;;3143237;28;19929;-59
2021/11/29 03:04:33;;;;;;;;;;;22.80;46.00;;;;;;3144151;28;19928;-57
2021/11/29 03:06:05;;;;;;;;;;;22.80;46.00;;;;;;3143032;28;20411;-57
2021/11/29 03:07:38;;;;;;;;;;;22.80;45.90;;;;;;3145590;28;19925;-56
2021/11/29 03:09:08;;;;;;;;;;;22.90;45.90;;;;;;3235963;22;20706;-52
2021/11/29 03:10:40;;;;;;;;;;;22.90;45.90;;;;;;3148739;28;19924;-54
2021/11/29 03:12:12;;;;;;;;;;;22.90;46.00;;;;;;3158409;28;20388;-52
2021/11/29 03:13:44;;;;;;;;;;;22.80;46.00;;;;;;3156446;28;19924;-51
2021/11/29 03:15:22;;;;;;;;;;;22.80;46.00;;;;;;3146335;28;19933;-54
2021/11/29 03:16:54;;;;;;;;;;;22.80;45.90;;;;;;3149935;28;20300;-54
2021/11/29 03:18:28;;;;;;;;;;;22.80;45.90;;;;;;3143980;28;19929;-53
2021/11/29 03:20:00;;;;;;;;;;;22.90;45.90;;;;;;3144386;28;19932;-53
2021/11/29 03:21:31;;;;;;;;;;;22.80;45.80;;;;;;3138698;28;19929;-51
2021/11/29 03:23:04;;;;;;;;;;;22.90;45.90;;;;;;3142440;28;19924;-56
2021/11/29 03:24:36;;;;;;;;;;;22.90;45.90;;;;;;3146719;28;20368;-53
2021/11/29 03:26:08;;;;;;;;;;;22.80;45.90;;;;;;3151310;28;19924;-53
2021/11/29 03:27:47;;;;;;;;;;;22.80;46.10;;;;;;3141294;28;19978;-53
2021/11/29 03:29:21;;;;;;;;;;;22.80;46.20;;;;;;3157067;22;19984;-52
2021/11/29 03:30:52;;;;;;;;;;;22.80;46.10;;;;;;3148076;28;19924;-54
2021/11/29 03:32:24;;;;;;;;;;;22.80;46.10;;;;;;3139977;28;19931;-51
2021/11/29 03:34:14;;;;;;;;;;;22.80;46.10;;;;;;3150087;28;19959;-53
2021/11/29 03:35:47;;;;;;;;;;;22.80;46.10;;;;;;3144571;28;19929;-54
2021/11/29 03:37:19;;;;;;;;;;;22.80;46.70;;;;;;3139687;28;19925;-53
2021/11/29 03:38:52;;;;;;;;;;;22.80;46.20;;;;;;3145323;28;19925;-52
2021/11/29 03:40:23;;;;;;;;;;;22.80;46.20;;;;;;3145168;28;20392;-52
2021/11/29 03:41:56;;;;;;;;;;;22.70;46.10;;;;;;3145848;28;19924;-55
2021/11/29 03:43:28;;;;;;;;;;;22.70;46.20;;;;;;3144144;28;19932;-54
2021/11/29 03:45:00;;;;;;;;;;;22.70;46.10;;;;;;3159953;22;19974;-60
2021/11/29 03:46:32;;;;;;;;;;;22.70;46.20;;;;;;3136517;28;20426;-61
2021/11/29 03:48:04;;;;;;;;;;;22.70;46.10;;;;;;3141248;28;19974;-60
2021/11/29 03:49:35;;;;;;;;;;;22.70;46.20;;;;;;3134243;28;20289;-59
2021/11/29 03:51:07;;;;;;;;;;;22.70;46.20;;;;;;3124401;28;19925;-60
2021/11/29 03:52:38;;;;;;;;;;;22.70;46.20;;;;;;3127238;28;20397;-61
2021/11/29 03:54:11;;;;;;;;;;;22.70;46.20;;;;;;3122773;28;19925;-58
2021/11/29 03:55:43;;;;;;;;;;;22.70;46.20;;;;;;3125650;28;19924;-61
2021/11/29 03:57:15;;;;;;;;;;;22.70;46.10;;;;;;3122684;28;20361;-60
2021/11/29 03:58:46;;;;;;;;;;;22.70;46.20;;;;;;3141321;28;19924;-60
2021/11/29 04:00:18;;;;;;;;;;;22.70;46.20;;;;;;3121965;28;19945;-60
2021/11/29 04:01:50;;;;;;;;;;;22.70;46.30;;;;;;3123010;28;20435;-59
2021/11/29 04:03:21;;;;;;;;;;;22.70;46.30;;;;;;3120186;28;19925;-60
2021/11/29 04:04:53;;;;;;;;;;;22.70;46.30;;;;;;3129021;28;19929;-61
2021/11/29 04:06:24;;;;;;;;;;;22.70;46.20;;;;;;3137239;28;19928;-58
2021/11/29 04:07:56;;;;;;;;;;;22.70;46.20;;;;;;3129956;28;19925;-61
2021/11/29 04:09:29;;;;;;;;;;;22.70;46.30;;;;;;3134579;28;19947;-61
2021/11/29 04:11:00;;;;;;;;;;;22.70;46.30;;;;;;3134821;28;19936;-59
2021/11/29 04:12:32;;;;;;;;;;;22.70;46.30;;;;;;3134493;28;19924;-58
2021/11/29 04:14:04;;;;;;;;;;;22.70;46.30;;;;;;3131725;28;20336;-61
2021/11/29 04:15:35;;;;;;;;;;;22.70;46.30;;;;;;3121602;28;19936;-61
2021/11/29 04:17:07;;;;;;;;;;;22.70;46.20;;;;;;3126311;28;19974;-59
2021/11/29 04:18:41;;;;;;;;;;;22.70;46.30;;;;;;3134062;28;19967;-59
2021/11/29 04:20:14;;;;;;;;;;;22.70;46.30;;;;;;3130623;28;19978;-58
2021/11/29 04:21:46;;;;;;;;;;;22.70;46.30;;;;;;3132681;28;19960;-60
2021/11/29 04:23:18;;;;;;;;;;;22.70;46.20;;;;;;3120300;28;20515;-58
2021/11/29 04:24:51;;;;;;;;;;;22.70;46.20;;;;;;3124554;28;19926;-59
2021/11/29 04:26:22;;;;;;;;;;;22.70;46.10;;;;;;3134615;28;19931;-60
2021/11/29 04:27:55;;;;;;;;;;;22.80;46.10;;;;;;3134300;28;20635;-61
2021/11/29 04:29:28;;;;;;;;;;;22.80;46.10;;;;;;3134584;28;20015;-60
2021/11/29 04:31:00;;;;;;;;;;;22.80;46.10;;;;;;3134025;28;20012;-61
2021/11/29 04:32:32;;;;;;;;;;;22.80;46.10;;;;;;3134240;28;20432;-58
2021/11/29 04:34:03;;;;;;;;;;;22.80;45.90;;;;;;3131992;28;19935;-60
2021/11/29 04:35:35;;;;;;;;;;;22.80;45.90;;;;;;3133171;28;19929;-61
2021/11/29 04:37:07;;;;;;;;;;;22.80;46.00;;;;;;3132479;28;20682;-61
2021/11/29 04:38:38;;;;;;;;;;;22.80;46.00;;;;;;3132632;28;19928;-59
2021/11/29 04:40:11;;;;;;;;;;;22.80;46.00;;;;;;3124318;28;20400;-61
2021/11/29 04:41:43;;;;;;;;;;;22.80;46.00;;;;;;3133727;28;20537;-57
2021/11/29 04:43:15;;;;;;;;;;;22.90;46.00;;;;;;3131918;28;20044;-61
2021/11/29 04:44:47;;;;;;;;;;;22.80;46.00;;;;;;3136458;28;20282;-60
2021/11/29 04:46:18;;;;;;;;;;;22.90;46.00;;;;;;3134043;28;19925;-60
2021/11/29 04:47:50;;;;;;;;;;;22.90;45.90;;;;;;3144711;28;19948;-60
2021/11/29 04:49:21;;;;;;;;;;;22.90;45.80;;;;;;3135205;28;19929;-61
2021/11/29 04:50:53;;;;;;;;;;;22.90;45.90;;;;;;3134624;28;19932;-59
2021/11/29 04:52:25;;;;;;;;;;;22.90;45.90;;;;;;3133864;28;19932;-57
2021/11/29 04:53:56;;;;;;;;;;;22.90;45.90;;;;;;3137584;28;19931;-61
2021/11/29 04:55:29;;;;;;;;;;;22.90;45.90;;;;;;3140020;28;20026;-60
2021/11/29 04:57:01;;;;;;;;;;;22.90;45.80;;;;;;3138220;28;20448;-61
2021/11/29 04:58:32;;;;;;;;;;;22.90;45.90;;;;;;3146097;28;19925;-61
2021/11/29 05:00:04;;;;;;;;;;;22.90;45.90;;;;;;3139934;28;19924;-59
2021/11/29 05:01:36;;;;;;;;;;;22.90;45.90;;;;;;3145211;28;20393;-58
2021/11/29 05:03:07;;;;;;;;;;;22.90;46.00;;;;;;3133992;28;19929;-61
2021/11/29 05:04:40;;;;;;;;;;;22.80;46.10;;;;;;3134510;28;20030;-58
2021/11/29 05:06:12;;;;;;;;;;;22.80;46.10;;;;;;3139803;28;20417;-59
2021/11/29 05:07:44;;;;;;;;;;;22.80;46.20;;;;;;3145835;28;19924;-61
2021/11/29 05:09:15;;;;;;;;;;;22.70;46.10;;;;;;3142055;28;19924;-58
2021/11/29 05:10:47;;;;;;;;;;;22.70;46.20;;;;;;3136354;28;19924;-61
2021/11/29 05:12:19;;;;;;;;;;;22.70;46.20;;;;;;3146476;28;20300;-61
2021/11/29 05:13:50;;;;;;;;;;;22.70;46.20;;;;;;3135462;28;19925;-61
2021/11/29 05:15:21;;;;;;;;;;;22.70;46.40;;;;;;3133421;28;19957;-61
2021/11/29 05:16:52;;;;;;;;;;;22.70;46.40;;;;;;3133984;28;19927;-59
2021/11/29 05:18:24;;;;;;;;;;;22.60;46.40;;;;;;3133502;28;19983;-57
2021/11/29 05:19:56;;;;;;;;;;;22.60;46.50;;;;;;3134391;28;19979;-61
2021/11/29 05:21:28;;;;;;;;;;;22.60;46.60;;;;;;3134328;28;20336;-60
2021/11/29 05:22:59;;;;;;;;;;;22.50;46.50;;;;;;3120926;28;19932;-61
2021/11/29 05:24:31;;;;;;;;;;;22.50;46.60;;;;;;3121602;28;19925;-60
2021/11/29 05:26:04;;;;;;;;;;;22.40;46.60;;;;;;3130265;28;20335;-60
2021/11/29 05:27:36;;;;;;;;;;;22.50;46.80;;;;;;3145358;28;19929;-61
2021/11/29 05:29:07;;;;;;;;;;;22.50;46.70;;;;;;3134200;28;19932;-60
2021/11/29 05:30:39;;;;;;;;;;;22.40;46.80;;;;;;3130681;28;19975;-59
2021/11/29 05:32:10;;;;;;;;;;;22.40;46.70;;;;;;3121581;28;20406;-59
2021/11/29 05:33:42;;;;;;;;;;;22.40;46.80;;;;;;3121161;28;19932;-61
2021/11/29 05:35:14;;;;;;;;;;;22.40;46.80;;;;;;3139672;28;19924;-59
2021/11/29 05:36:45;;;;;;;;;;;22.40;46.90;;;;;;3121358;28;19929;-60
2021/11/29 05:38:17;;;;;;;;;;;22.40;46.70;;;;;;3127335;28;19925;-61
2021/11/29 05:39:48;;;;;;;;;;;22.50;46.70;;;;;;3129679;28;19924;-61
2021/11/29 05:41:21;;;;;;;;;;;22.50;47.40;;;;;;3130233;28;19979;-59
2021/11/29 05:42:53;;;;;;;;;;;22.40;46.80;;;;;;3124840;28;19978;-59
2021/11/29 05:44:24;;;;;;;;;;;22.50;46.70;;;;;;3134095;28;20385;-61
2021/11/29 05:45:57;;;;;;;;;;;22.50;46.60;;;;;;3132685;28;19928;-58
2021/11/29 05:47:29;;;;;;;;;;;22.50;46.60;;;;;;3132856;28;19925;-61
2021/11/29 05:49:01;;;;;;;;;;;22.50;46.60;;;;;;3133888;28;20000;-58
2021/11/29 05:50:33;;;;;;;;;;;22.60;46.50;;;;;;3142252;28;20023;-61
2021/11/29 05:52:05;;;;;;;;;;;22.60;46.40;;;;;;3129129;28;19925;-61
2021/11/29 05:53:36;;;;;;;;;;;22.60;46.40;;;;;;3128394;28;20412;-58
2021/11/29 05:55:08;;;;;;;;;;;22.60;46.40;;;;;;3134768;28;19982;-60
2021/11/29 05:56:41;;;;;;;;;;;22.60;46.30;;;;;;3133565;28;19932;-61
2021/11/29 05:58:13;;;;;;;;;;;22.70;46.30;;;;;;3133491;28;19925;-59
2021/11/29 05:59:45;;;;;;;;;;;22.70;46.60;;;;;;3133724;28;19924;-57
2021/11/29 06:01:17;;;;;;;;;;;22.70;46.80;;;;;;3132930;28;20350;-60
2021/11/29 06:02:48;;;;;;;;;;;22.70;46.80;;;;;;3135404;28;19925;-60
2021/11/29 06:04:20;;;;;;;;;;;22.80;47.10;;;;;;3133929;28;19984;-60
2021/11/29 06:05:52;;;;;;;;;;;22.80;47.00;;;;;;3127145;28;20297;-60
2021/11/29 06:07:23;;;;;;;;;;;22.80;47.70;;;;;;3145430;28;19924;-58
2021/11/29 06:08:55;;;;;;;;;;;22.80;47.10;;;;;;3142479;28;19932;-61
2021/11/29 06:10:26;;;;;;;;;;;22.70;47.20;;;;;;3133936;28;19929;-61
2021/11/29 06:11:59;;;;;;;;;;;22.70;47.00;;;;;;3133369;28;19979;-60
2021/11/29 06:13:31;;;;;;;;;;;22.60;46.90;;;;;;3132754;28;19947;-62
2021/11/29 06:15:02;;;;;;;;;;;22.60;47.00;;;;;;3134268;28;20438;-62
2021/11/29 06:16:34;;;;;;;;;;;22.50;47.30;;;;;;3132151;28;19940;-61
2021/11/29 06:18:05;;;;;;;;;;;22.50;47.60;;;;;;3136035;28;20389;-61
2021/11/29 06:19:37;;;;;;;;;;;22.50;47.80;;;;;;3140174;28;19933;-59
2021/11/29 06:21:09;;;;;;;;;;;22.50;48.00;;;;;;3139851;28;19924;-61
2021/11/29 06:22:40;;;;;;;;;;;22.50;48.00;;;;;;3122449;28;19932;-60
2021/11/29 06:24:12;;;;;;;;;;;22.50;48.10;;;;;;3123328;28;19925;-58
2021/11/29 06:25:43;;;;;;;;;;;22.50;47.80;;;;;;3122257;28;19948;-59
2021/11/29 06:27:18;;;;;;;;;;;22.50;47.60;;;;;;3124534;28;20294;-61
2021/11/29 06:28:50;;;;;;;;;;;22.50;47.40;;;;;;3114193;28;19925;-61
2021/11/29 06:30:21;;;;;;;;;;;22.50;47.80;;;;;;3117990;28;20343;-62
2021/11/29 06:31:53;;;;;;;;;;;22.50;47.80;;;;;;3130413;28;20419;-59
2021/11/29 06:33:25;;;;;;;;;;;22.40;48.20;;;;;;3132934;28;19925;-62
2021/11/29 06:34:56;;;;;;;;;;;22.40;48.30;;;;;;3144511;28;19924;-61
2021/11/29 06:36:28;;;;;;;;;;;22.50;48.30;;;;;;3136531;28;19933;-61
2021/11/29 06:38:00;;;;;;;;;;;22.50;48.40;;;;;;3137045;28;19974;-62
2021/11/29 06:39:32;;;;;;;;;;;22.50;49.30;;;;;;3131893;28;19929;-61
2021/11/29 06:41:03;;;;;;;;;;;22.60;49.20;;;;;;3133677;28;20659;-60
2021/11/29 06:42:36;;;;;;;;;;;22.60;49.50;;;;;;3124185;28;19925;-60
2021/11/29 06:44:08;;;;;;;;;;;22.50;50.00;;;;;;3137918;28;19925;-61
2021/11/29 06:45:39;;;;;;;;;;;22.50;50.20;;;;;;3144421;28;19924;-62
2021/11/29 06:47:11;;;;;;;;;;;22.50;50.30;;;;;;3139615;28;19925;-60
2021/11/29 06:48:43;;;;;;;;;;;22.50;50.30;;;;;;3133198;28;19929;-60
2021/11/29 06:50:14;;;;;;;;;;;22.50;50.30;;;;;;3137076;28;19947;-61
2021/11/29 06:51:46;;;;;;;;;;;22.50;50.30;;;;;;3130640;28;19947;-58
2021/11/29 06:53:17;;;;;;;;;;;22.50;50.30;;;;;;3126171;28;19932;-60
2021/11/29 06:54:50;;;;;;;;;;;22.50;50.30;;;;;;3130985;28;19979;-60
2021/11/29 06:56:21;;;;;;;;;;;22.50;50.20;;;;;;3139307;28;20392;-61
2021/11/29 06:57:54;;;;;;;;;;;22.50;50.10;;;;;;3128830;28;19925;-62
2021/11/29 06:59:26;;;;;;;;;;;22.50;50.60;;;;;;3134215;28;20353;-62
2021/11/29 07:00:58;;;;;;;;;;;22.50;50.90;;;;;;3133341;28;20304;-59
2021/11/29 07:02:30;;;;;;;;;;;22.40;49.90;;;;;;3128839;28;19930;-59
2021/11/29 07:04:01;;;;;;;;;;;22.40;49.20;;;;;;3137461;28;19925;-59
2021/11/29 07:05:33;;;;;;;;;;;22.30;48.80;;;;;;3145260;28;19924;-60
2021/11/29 07:07:05;;;;;;;;;;;22.20;48.00;;;;;;3136475;28;20365;-59
2021/11/29 07:08:36;;;;;;;;;;;22.10;46.80;;;;;;3141096;28;19924;-59
2021/11/29 07:10:08;;;;;;;;;;;22.00;45.30;;;;;;3133278;28;19929;-60
2021/11/29 07:11:40;;;;;;;;;;;21.80;43.90;;;;;;3132763;28;19925;-58
2021/11/29 07:13:13;;;;;;;;;;;21.80;42.90;;;;;;3131518;28;19925;-60
2021/11/29 07:14:45;;;;;;;;;;;21.70;42.10;;;;;;3133139;28;20377;-58
2021/11/29 07:16:17;;;;;;;;;;;21.80;42.00;;;;;;3119552;28;19929;-58
2021/11/29 07:17:48;;;;;;;;;;;21.80;41.90;;;;;;3131349;28;19929;-60
2021/11/29 07:19:20;;;;;;;;;;;21.80;42.00;;;;;;3132664;28;19929;-61
2021/11/29 07:20:51;;;;;;;;;;;21.70;41.40;;;;;;3132213;28;20047;-57
2021/11/29 07:22:24;;;;;;;;;;;21.50;40.70;;;;;;3130096;28;19970;-58
2021/11/29 07:23:56;;;;;;;;;;;21.30;40.40;;;;;;3130610;28;19929;-57
2021/11/29 07:25:27;;;;;;;;;;;21.10;37.90;;;;;;3130397;28;20480;-58
2021/11/29 07:26:59;;;;;;;;;;;20.90;38.50;;;;;;3133302;28;19924;-57
2021/11/29 07:28:32;;;;;;;;;;;20.70;38.60;;;;;;3135003;28;20011;-56
2021/11/29 07:30:04;;;;;;;;;;;20.60;37.60;;;;;;3135378;28;19971;-57
2021/11/29 07:31:35;;;;;;;;;;;20.50;37.80;;;;;;3134370;28;19951;-57
2021/11/29 07:33:07;;;;;;;;;;;20.60;37.10;;;;;;3134516;28;19929;-59
2021/11/29 07:34:39;;;;;;;;;;;20.80;36.60;;;;;;3135486;28;20292;-59
2021/11/29 07:36:10;;;;;;;;;;;20.90;36.80;;;;;;3135096;28;19932;-60
2021/11/29 07:37:42;;;;;;;;;;;21.10;37.20;;;;;;3124582;28;19980;-58
2021/11/29 07:39:14;;;;;;;;;;;21.30;37.50;;;;;;3122141;28;19926;-59
2021/11/29 07:40:45;;;;;;;;;;;21.40;37.80;;;;;;3122936;28;20270;-57
2021/11/29 07:42:17;;;;;;;;;;;21.50;38.00;;;;;;3124110;28;20046;-58
2021/11/29 07:43:50;;;;;;;;;;;21.50;38.20;;;;;;3126281;28;19925;-54
2021/11/29 07:45:21;;;;;;;;;;;21.60;39.20;;;;;;3134886;28;19955;-59
2021/11/29 07:46:53;;;;;;;;;;;21.50;38.70;;;;;;3130574;28;19979;-57
2021/11/29 07:48:25;;;;;;;;;;;21.60;39.00;;;;;;3129034;28;19979;-56
2021/11/29 07:49:56;;;;;;;;;;;21.60;39.40;;;;;;3125951;28;20278;-56
2021/11/29 07:51:28;;;;;;;;;;;21.60;40.20;;;;;;3133652;28;19928;-59
2021/11/29 07:52:59;;;;;;;;;;;21.70;39.70;;;;;;3132447;28;19940;-58
2021/11/29 07:54:31;;;;;;;;;;;21.70;39.80;;;;;;3130508;28;19924;-57
2021/11/29 07:56:02;;;;;;;;;;;21.70;39.90;;;;;;3122274;28;19929;-58
2021/11/29 07:57:35;;;;;;;;;;;21.80;40.10;;;;;;3122034;28;19929;-59
2021/11/29 07:59:08;;;;;;;;;;;21.70;40.20;;;;;;3131407;28;20401;-54
2021/11/29 08:00:39;;;;;;;;;;;21.80;40.30;;;;;;3133630;28;19929;-58
2021/11/29 08:02:12;;;;;;;;;;;21.80;40.30;;;;;;3134303;28;19925;-55
2021/11/29 08:03:43;;;;;;;;;;;21.80;40.40;;;;;;3130987;28;19931;-57
2021/11/29 08:05:15;;;;;;;;;;;21.80;40.60;;;;;;3134963;28;19929;-59
2021/11/29 08:06:48;;;;;;;;;;;21.80;41.10;;;;;;3133767;28;19929;-59
2021/11/29 08:08:19;;;;;;;;;;;21.90;41.30;;;;;;3139841;28;20019;-55
2021/11/29 08:09:51;;;;;;;;;;;21.90;41.20;;;;;;3138203;28;20300;-59
2021/11/29 08:11:22;;;;;;;;;;;21.90;41.10;;;;;;3134435;28;19955;-55
2021/11/29 08:12:54;;;;;;;;;;;21.90;41.00;;;;;;3132460;28;19932;-58
2021/11/29 08:14:27;;;;;;;;;;;22.00;41.10;;;;;;3133790;28;20435;-56
2021/11/29 08:15:59;;;;;;;;;;;22.00;41.10;;;;;;3121299;28;19925;-57
2021/11/29 08:17:30;;;;;;;;;;;22.00;41.20;;;;;;3121373;28;19926;-56
2021/11/29 08:19:02;;;;;;;;;;;22.10;41.30;;;;;;3122024;28;20051;-55
2021/11/29 08:20:33;;;;;;;;;;;22.00;41.30;;;;;;3121959;28;19929;-57
2021/11/29 08:22:05;;;;;;;;;;;22.10;41.40;;;;;;3134517;28;20068;-58
2021/11/29 08:23:37;;;;;;;;;;;22.10;41.50;;;;;;3124360;28;19983;-58
2021/11/29 08:25:09;;;;;;;;;;;22.10;41.50;;;;;;3121962;28;19995;-56
2021/11/29 08:26:40;;;;;;;;;;;22.10;41.60;;;;;;3123179;28;19925;-58
2021/11/29 08:28:12;;;;;;;;;;;22.20;41.90;;;;;;3134053;28;19932;-60
2021/11/29 08:29:45;;;;;;;;;;;22.30;41.80;;;;;;3134481;28;19925;-59
2021/11/29 08:31:17;;;;;;;;;;;22.50;42.00;;;;;;3133607;28;19925;-59
2021/11/29 08:32:49;;;;;;;;;;;22.60;41.90;;;;;;3133576;28;19928;-58
2021/11/29 08:34:20;;;;;;;;;;;22.70;41.90;;;;;;3134289;28;20459;-59
2021/11/29 08:35:52;;;;;;;;;;;22.80;41.80;;;;;;3134261;28;19925;-59
2021/11/29 08:37:23;;;;;;;;;;;22.80;41.80;;;;;;3133996;28;19925;-60
2021/11/29 08:38:55;;;;;;;;;;;22.90;41.80;;;;;;3134505;28;19925;-60
2021/11/29 08:40:27;;;;;;;;;;;23.00;41.80;;;;;;3133465;28;20027;-57
2021/11/29 08:41:59;;;;;;;;;;;23.00;41.70;;;;;;3129567;28;19936;-59
2021/11/29 08:43:31;;;;;;;;;;;23.00;41.70;;;;;;3129798;28;19971;-58
2021/11/29 08:45:04;;;;;;;;;;;23.10;41.60;;;;;;3132985;28;20317;-58
2021/11/29 08:46:36;;;;;;;;;;;23.10;41.60;;;;;;3127300;28;19925;-58
2021/11/29 08:48:08;;;;;;;;;;;23.00;41.70;;;;;;3137114;28;19929;-58
2021/11/29 08:49:42;;;;;;;;;;;23.00;41.60;;;;;;3129127;28;19998;-59
2021/11/29 08:51:14;;;;;;;;;;;23.00;41.60;;;;;;3126949;28;20340;-59
2021/11/29 08:52:45;;;;;;;;;;;22.90;41.80;;;;;;3131716;28;19931;-59
2021/11/29 08:54:17;;;;;;;;;;;22.70;41.70;;;;;;3129063;28;20818;-59